Airfield :
LOGIN :

Register | Disclaimer

   EN    FR    IT 

 










Legend :    VFR   Marginal VFR   IFR   Intensive IFR   Very Intensive IFR
Visi :
Ceiling :
>= 8 km
>= 3000ft
5 to 8 km
1000 to 3000 ft
1500m to 5 km
500 to 1000 ft
800 to 1500m
200 to 500 ft
< 800m
< 200 ft
Symbols :   Thunderstorms  Fog  Heavy snow  Heavy precipitations  Wind > 20 kt
SIGMETs :     Misc.  Thunderstorms  Icing  Turbulence  Mountain Waves  Volcanic Ashes






- Airport Elevation : 278 ft
- IATA code : RJK


LDRI - Rijeka

CURRENT METAR :
  • 311830Z 05008KT 030V110 9999 BKN047 18/06 Q1015

EXPIRED METARs :
  • 311800Z 36005KT 320V040 9999 BKN047 19/05 Q1015
  • 311730Z 31003KT 9999 BKN050 18/06 Q1015
  • 311700Z VRB01KT 9999 BKN050 18/06 Q1015
  • 311630Z 27004KT 9999 BKN050 18/08 Q1015
  • 311600Z VRB02KT 9999 BKN050 19/07 Q1014

TAF TAF LDRI
Valid from the 31 at 18:00 until the 01 at 18:00 UTC


311725Z 3118/0118 34005KT 9999 SCT045 TX24/0113Z TN14/0105Z
BECMG 3118/3120 04010KT
PROB40
TEMPO 3118/0114 04015G25KT
PROB30
TEMPO 3120/0106 32008KT



MET'MAP, your aeronautical weather chart ! - Copyright ORBIFLY December 2007 - Disclaimer

ORBIFLY MET'MAP TEAM :

Programming & Development : Alexandra Zaïnal
Concept & original design : Baudouin d'Aumeries
Assistance for programming : Marc-Olivier Méhu
Technical & hardware support : Manuel Goepfert

Contact : metmap@orbifly.com




SOURCES & CREDITS :

   NOAA